createdAt,value
2023-04-13T00:00:29.328Z,7.80
2023-04-13T00:02:57.340Z,8.53
2023-04-13T00:05:25.344Z,8.17
2023-04-13T00:07:53.218Z,7.70
2023-04-13T00:10:21.059Z,7.90
2023-04-13T00:12:50.346Z,7.40
2023-04-13T00:15:19.683Z,7.67
2023-04-13T00:17:48.477Z,7.23
2023-04-13T00:20:17.711Z,6.63
2023-04-13T00:22:46.889Z,6.87
2023-04-13T00:25:15.925Z,6.40
2023-04-13T00:27:44.867Z,6.23
2023-04-13T00:30:15.839Z,5.87
2023-04-13T00:32:44.605Z,6.20
2023-04-13T00:35:13.981Z,6.90
2023-04-13T00:37:43.141Z,6.77
2023-04-13T00:40:12.359Z,6.70
2023-04-13T00:42:40.137Z,6.60
2023-04-13T00:45:09.590Z,7.10
2023-04-13T00:47:41.758Z,7.20
2023-04-13T00:50:10.291Z,8.03
2023-04-13T00:52:39.026Z,8.23
2023-04-13T00:55:07.811Z,8.20
2023-04-13T00:57:36.584Z,7.37
2023-04-13T01:00:09.941Z,7.97
2023-04-13T01:02:43.231Z,8.23
2023-04-13T01:05:12.850Z,8.07
2023-04-13T01:07:47.503Z,8.40
2023-04-13T01:10:20.106Z,8.57
2023-04-13T01:12:52.665Z,8.13
2023-04-13T01:15:21.129Z,7.53
2023-04-13T01:17:54.035Z,7.90
2023-04-13T01:20:22.103Z,7.30
2023-04-13T01:22:55.835Z,7.30
2023-04-13T01:25:32.752Z,7.10
2023-04-13T01:28:05.336Z,6.67
2023-04-13T01:30:34.255Z,6.90
2023-04-13T01:33:03.557Z,6.13
2023-04-13T01:35:31.795Z,6.67
2023-04-13T01:37:59.794Z,6.40
2023-04-13T01:40:29.019Z,6.47
2023-04-13T01:42:57.488Z,7.27
2023-04-13T01:45:29.294Z,6.93
2023-04-13T01:48:19.208Z,6.50
2023-04-13T01:50:50.397Z,6.47
2023-04-13T01:53:21.161Z,6.10
2023-04-13T01:55:50.088Z,6.70
2023-04-13T01:58:19.665Z,6.40
2023-04-13T02:00:49.215Z,5.93
2023-04-13T02:03:17.855Z,6.50
2023-04-13T02:05:46.079Z,6.27
2023-04-13T02:08:14.003Z,6.80
2023-04-13T02:10:42.382Z,6.70
2023-04-13T02:13:10.446Z,6.50
2023-04-13T02:15:39.068Z,6.57
2023-04-13T02:18:08.701Z,6.50
2023-04-13T02:20:40.459Z,6.37
2023-04-13T02:23:08.803Z,6.80
2023-04-13T02:25:36.698Z,6.70
2023-04-13T02:28:04.885Z,6.50
2023-04-13T02:30:32.690Z,6.63
2023-04-13T02:33:00.528Z,5.93
2023-04-13T02:35:30.621Z,6.97
2023-04-13T02:37:58.361Z,7.00
2023-04-13T02:40:27.912Z,7.40
2023-04-13T02:42:57.371Z,8.33
2023-04-13T02:45:25.352Z,8.17
2023-04-13T02:47:53.229Z,7.13
2023-04-13T02:50:21.121Z,7.77
2023-04-13T02:52:51.368Z,7.57
2023-04-13T02:55:19.411Z,7.57
2023-04-13T02:57:47.146Z,7.00
2023-04-13T03:00:16.957Z,7.13
2023-04-13T03:02:44.890Z,6.77
2023-04-13T03:05:13.608Z,7.20
2023-04-13T03:07:41.428Z,7.63
2023-04-13T03:10:11.382Z,7.73
2023-04-13T03:12:39.161Z,7.47
2023-04-13T03:15:11.057Z,6.90
2023-04-13T03:17:40.526Z,7.30
2023-04-13T03:20:12.005Z,7.20
2023-04-13T03:22:40.009Z,7.10
2023-04-13T03:25:08.464Z,7.10
2023-04-13T03:27:37.733Z,7.33
2023-04-13T03:30:06.265Z,7.03
2023-04-13T03:32:34.194Z,6.73
2023-04-13T03:35:02.192Z,6.53
2023-04-13T03:37:32.668Z,7.10
2023-04-13T03:40:00.542Z,6.90
2023-04-13T03:42:28.313Z,6.80
2023-04-13T03:44:57.808Z,6.30
2023-04-13T03:47:25.673Z,6.67
2023-04-13T03:49:53.562Z,6.80
2023-04-13T03:52:21.339Z,7.10
2023-04-13T03:54:49.099Z,7.43
2023-04-13T03:57:16.942Z,7.27
2023-04-13T03:59:44.706Z,7.73
2023-04-13T04:02:13.904Z,8.30
2023-04-13T04:04:42.135Z,7.93
2023-04-13T04:07:10.016Z,6.87
2023-04-13T04:09:37.813Z,7.17
2023-04-13T04:12:06.142Z,8.00
2023-04-13T04:14:33.824Z,7.60
2023-04-13T04:17:01.559Z,7.13
2023-04-13T04:19:30.644Z,7.43
2023-04-13T04:21:59.155Z,7.47
2023-04-13T04:24:27.482Z,7.37
2023-04-13T04:26:57.989Z,6.70
2023-04-13T04:29:29.900Z,6.67
2023-04-13T04:31:57.717Z,7.53
2023-04-13T04:34:25.471Z,6.97
2023-04-13T04:36:57.030Z,7.30
2023-04-13T04:39:26.814Z,7.30
2023-04-13T04:42:02.948Z,7.10
2023-04-13T04:44:31.816Z,7.23
2023-04-13T04:47:02.727Z,6.87
2023-04-13T04:49:30.660Z,7.40
2023-04-13T04:51:59.825Z,7.97
2023-04-13T04:54:27.636Z,7.27
2023-04-13T04:56:57.972Z,7.27
2023-04-13T04:59:25.830Z,7.60
2023-04-13T05:01:53.703Z,7.33
2023-04-13T05:04:21.474Z,8.13
2023-04-13T05:06:49.202Z,7.70
2023-04-13T05:09:19.528Z,7.37
2023-04-13T05:11:47.332Z,7.67
2023-04-13T05:14:15.039Z,7.87
2023-04-13T05:16:42.732Z,7.53
2023-04-13T05:19:10.525Z,7.57
2023-04-13T05:21:38.357Z,8.30
2023-04-13T05:24:06.517Z,7.30
2023-04-13T05:26:35.644Z,8.70
2023-04-13T05:29:04.636Z,8.00
2023-04-13T05:31:32.528Z,7.53
2023-04-13T05:34:00.344Z,7.37
2023-04-13T05:36:29.477Z,8.30
2023-04-13T05:38:58.164Z,8.03
2023-04-13T05:41:26.414Z,8.07
2023-04-13T05:43:55.570Z,7.33
2023-04-13T05:46:23.427Z,8.53
2023-04-13T05:48:51.459Z,7.40
2023-04-13T05:51:19.589Z,7.77
2023-04-13T05:53:48.080Z,7.97
2023-04-13T05:56:15.909Z,7.70
2023-04-13T05:58:44.418Z,7.67
2023-04-13T06:01:13.486Z,7.20
2023-04-13T06:03:41.444Z,7.70
2023-04-13T06:06:10.279Z,7.27
2023-04-13T06:08:38.674Z,7.40
2023-04-13T06:11:08.004Z,7.60
2023-04-13T06:13:36.346Z,7.50
2023-04-13T06:16:04.206Z,7.40
2023-04-13T06:18:34.448Z,7.57
2023-04-13T06:21:02.410Z,7.37
2023-04-13T06:23:30.175Z,7.43
2023-04-13T06:25:57.979Z,7.80
2023-04-13T06:28:29.220Z,7.80
2023-04-13T06:30:57.364Z,8.67
2023-04-13T06:33:26.168Z,8.70
2023-04-13T06:35:55.631Z,8.37
2023-04-13T06:38:23.466Z,8.07
2023-04-13T06:40:52.669Z,8.00
2023-04-13T06:43:29.228Z,7.97
2023-04-13T06:46:01.727Z,8.40
2023-04-13T06:48:29.691Z,8.90
2023-04-13T06:50:59.345Z,8.70
2023-04-13T06:53:27.320Z,8.00
2023-04-13T06:55:55.076Z,8.00
2023-04-13T06:58:23.347Z,8.17
2023-04-13T07:00:51.419Z,7.67
2023-04-13T07:03:19.338Z,11.10
2023-04-13T07:05:47.267Z,9.63
2023-04-13T07:08:16.642Z,8.93
2023-04-13T07:10:44.407Z,8.30
2023-04-13T07:13:12.249Z,8.20
2023-04-13T07:15:40.552Z,8.53
2023-04-13T07:18:08.464Z,8.00
2023-04-13T07:20:36.550Z,8.20
2023-04-13T07:23:04.335Z,6.97
2023-04-13T07:25:35.092Z,6.93
2023-04-13T07:28:02.838Z,7.50
2023-04-13T07:30:31.279Z,7.00
2023-04-13T07:32:59.132Z,7.70
2023-04-13T07:35:27.066Z,7.27
2023-04-13T07:37:54.830Z,7.33
2023-04-13T07:40:22.648Z,7.27
2023-04-13T07:42:52.216Z,7.30
2023-04-13T07:45:21.218Z,7.67
2023-04-13T07:47:49.201Z,7.03
2023-04-13T07:50:18.243Z,6.57
2023-04-13T07:52:46.046Z,6.97
2023-04-13T07:55:13.849Z,6.83
2023-04-13T07:57:41.917Z,6.90
2023-04-13T08:00:14.252Z,6.77
2023-04-13T08:02:42.296Z,7.17
2023-04-13T08:05:11.531Z,7.00
2023-04-13T08:07:39.500Z,6.70
2023-04-13T08:10:08.650Z,6.80
2023-04-13T08:12:36.704Z,6.63
2023-04-13T08:15:04.818Z,6.80
2023-04-13T08:17:34.267Z,7.23
2023-04-13T08:20:02.251Z,6.93
2023-04-13T08:22:29.973Z,6.80
2023-04-13T08:24:57.754Z,7.17
2023-04-13T08:27:26.048Z,6.00
2023-04-13T08:29:56.786Z,6.50
2023-04-13T08:32:24.631Z,7.17
2023-04-13T08:34:54.744Z,6.90
2023-04-13T08:37:24.840Z,7.00
2023-04-13T08:39:56.711Z,6.13
2023-04-13T08:42:26.963Z,6.23
2023-04-13T08:44:58.634Z,6.67
2023-04-13T08:47:28.090Z,7.03
2023-04-13T08:49:59.725Z,6.43
2023-04-13T08:52:28.554Z,6.60
2023-04-13T08:54:58.214Z,6.60
2023-04-13T08:57:25.999Z,6.40
2023-04-13T08:59:54.119Z,6.27
2023-04-13T09:02:26.537Z,5.93
2023-04-13T09:04:55.703Z,5.83
2023-04-13T09:07:27.747Z,6.93
2023-04-13T09:09:58.399Z,6.40
2023-04-13T09:12:26.411Z,6.60
2023-04-13T09:14:54.219Z,6.50
2023-04-13T09:17:27.000Z,6.97
2023-04-13T09:19:55.831Z,6.07
2023-04-13T09:22:25.955Z,6.50
2023-04-13T09:24:53.793Z,6.43
2023-04-13T09:27:23.447Z,6.30
2023-04-13T09:29:52.806Z,6.13
2023-04-13T09:32:22.514Z,6.90
2023-04-13T09:35:01.473Z,5.90
2023-04-13T09:37:30.626Z,5.50
2023-04-13T09:40:10.467Z,4.80
2023-04-13T09:42:38.925Z,3.43
2023-04-13T09:45:08.482Z,3.20
2023-04-13T09:47:38.592Z,2.80
2023-04-13T09:50:07.536Z,2.63
2023-04-13T09:52:36.682Z,2.60
2023-04-13T09:55:04.485Z,2.63
2023-04-13T09:57:33.400Z,2.80
2023-04-13T10:00:02.252Z,2.53
2023-04-13T10:02:30.946Z,2.40
2023-04-13T10:04:59.871Z,2.20
2023-04-13T10:07:30.506Z,2.10
2023-04-13T10:10:00.357Z,2.20
2023-04-13T10:12:28.726Z,2.30
2023-04-13T10:14:59.994Z,2.30
2023-04-13T10:17:44.824Z,2.00
2023-04-13T10:20:13.797Z,2.10
2023-04-13T10:22:44.612Z,1.80
2023-04-13T10:25:29.563Z,1.93
2023-04-13T10:28:00.269Z,2.07
2023-04-13T10:30:28.779Z,2.00
2023-04-13T10:33:05.585Z,1.80
2023-04-13T10:35:37.088Z,1.53
2023-04-13T10:38:05.492Z,1.63
2023-04-13T10:40:45.286Z,1.80
2023-04-13T10:43:13.199Z,1.43
2023-04-13T10:45:41.022Z,1.77
2023-04-13T10:48:08.991Z,1.50
2023-04-13T10:50:38.940Z,1.20
2023-04-13T10:53:08.979Z,1.30
2023-04-13T10:55:36.905Z,1.30
2023-04-13T10:58:16.293Z,1.20
2023-04-13T11:00:46.709Z,1.10
2023-04-13T11:03:16.723Z,1.10
2023-04-13T11:05:46.117Z,1.33
2023-04-13T11:08:19.232Z,1.60
2023-04-13T11:10:52.470Z,1.30
2023-04-13T11:13:22.242Z,1.40
2023-04-13T11:15:50.615Z,1.30
2023-04-13T11:18:25.683Z,1.10
2023-04-13T11:20:53.547Z,1.10
2023-04-13T11:23:24.054Z,1.10
2023-04-13T11:25:54.824Z,0.80
2023-04-13T11:28:24.638Z,0.97
2023-04-13T11:30:56.500Z,0.70
2023-04-13T11:33:28.039Z,0.80
2023-04-13T11:35:56.446Z,0.80
2023-04-13T11:38:24.601Z,0.87
2023-04-13T11:40:58.970Z,0.80
2023-04-13T11:43:38.055Z,0.80
2023-04-13T11:46:06.074Z,0.50
2023-04-13T11:48:34.076Z,0.50
2023-04-13T11:51:02.032Z,0.60
2023-04-13T11:53:30.200Z,0.67
2023-04-13T11:55:58.688Z,0.80
2023-04-13T11:58:26.847Z,0.60
2023-04-13T12:00:59.901Z,0.50
2023-04-13T12:03:42.551Z,0.60
2023-04-13T12:06:22.171Z,0.63
2023-04-13T12:08:56.178Z,0.47
2023-04-13T12:14:07.249Z,0.40
2023-04-13T12:19:13.814Z,0.60
2023-04-13T12:21:52.682Z,0.60
2023-04-13T12:24:21.084Z,0.70
2023-04-13T12:29:22.826Z,0.70
2023-04-13T12:31:51.989Z,0.80
2023-04-13T12:34:20.885Z,1.10
2023-04-13T12:36:48.678Z,0.70
2023-04-13T12:39:16.493Z,0.90
2023-04-13T12:41:44.297Z,0.90
2023-04-13T12:44:12.040Z,0.80
2023-04-13T12:46:40.370Z,0.70
2023-04-13T12:49:09.558Z,0.70
2023-04-13T12:51:37.654Z,0.50
2023-04-13T12:54:08.811Z,0.60
2023-04-13T12:56:37.636Z,0.50
2023-04-13T12:59:05.608Z,0.60
2023-04-13T13:01:36.495Z,0.70
2023-04-13T13:04:05.237Z,0.50
2023-04-13T13:06:35.031Z,0.57
2023-04-13T13:09:02.949Z,0.50
2023-04-13T13:11:30.848Z,0.80
2023-04-13T13:13:58.718Z,0.57
2023-04-13T13:16:26.546Z,0.50
2023-04-13T13:18:54.371Z,0.53
2023-04-13T13:21:23.230Z,0.50
2023-04-13T13:23:52.272Z,0.53
2023-04-13T13:26:24.319Z,0.60
2023-04-13T13:28:53.910Z,0.57
2023-04-13T13:31:21.831Z,0.50
2023-04-13T13:33:49.774Z,0.43
2023-04-13T13:36:17.566Z,0.50
2023-04-13T13:38:45.317Z,0.60
2023-04-13T13:41:14.470Z,0.70
2023-04-13T13:43:42.311Z,0.70
2023-04-13T13:46:10.182Z,0.77
2023-04-13T13:48:37.947Z,0.90
2023-04-13T13:51:07.533Z,0.90
2023-04-13T13:53:35.688Z,1.00
2023-04-13T13:56:04.244Z,1.00
2023-04-13T13:58:33.468Z,0.90
2023-04-13T14:01:01.261Z,0.80
2023-04-13T14:03:29.294Z,0.90
2023-04-13T14:05:57.159Z,0.80
2023-04-13T14:08:24.860Z,0.60
2023-04-13T14:10:52.851Z,1.03
2023-04-13T14:13:20.621Z,0.80
2023-04-13T14:15:49.793Z,0.73
2023-04-13T14:18:17.731Z,0.60
2023-04-13T14:20:45.622Z,0.70
2023-04-13T14:23:13.444Z,0.57
2023-04-13T14:25:42.502Z,0.50
2023-04-13T14:28:11.379Z,0.60
2023-04-13T14:30:40.526Z,0.50
2023-04-13T14:33:10.010Z,0.57
2023-04-13T14:35:38.845Z,0.60
2023-04-13T14:38:08.194Z,0.60
2023-04-13T14:40:36.006Z,0.50
2023-04-13T14:43:03.819Z,0.50
2023-04-13T14:45:32.210Z,0.70
2023-04-13T14:48:02.206Z,0.53
2023-04-13T14:50:31.362Z,0.60
2023-04-13T14:52:59.316Z,0.70
2023-04-13T14:55:27.443Z,0.63
2023-04-13T14:57:57.456Z,0.70
2023-04-13T15:00:38.532Z,0.73
2023-04-13T15:03:10.056Z,0.70
2023-04-13T15:05:39.912Z,0.73
2023-04-13T15:08:08.453Z,0.70
2023-04-13T15:10:36.594Z,0.70
2023-04-13T15:13:05.116Z,0.60
2023-04-13T15:15:34.443Z,0.70
2023-04-13T15:18:03.263Z,0.73
2023-04-13T15:20:31.600Z,1.10
2023-04-13T15:23:00.850Z,1.03
2023-04-13T15:25:28.638Z,0.90
2023-04-13T15:27:59.186Z,1.00
2023-04-13T15:30:28.279Z,0.87
2023-04-13T15:32:57.283Z,1.00
2023-04-13T15:35:26.974Z,0.90
2023-04-13T15:37:55.360Z,0.80
2023-04-13T15:40:26.087Z,0.60
2023-04-13T15:42:54.024Z,0.80
2023-04-13T15:45:21.981Z,1.10
2023-04-13T15:47:49.950Z,0.70
2023-04-13T15:50:18.878Z,0.70
2023-04-13T15:52:47.153Z,0.80
2023-04-13T15:55:15.399Z,0.50
2023-04-13T15:57:44.781Z,0.50
2023-04-13T16:00:13.414Z,0.50
2023-04-13T16:02:41.252Z,0.70
2023-04-13T16:05:09.866Z,0.93
2023-04-13T16:07:37.715Z,0.80
2023-04-13T16:10:07.075Z,0.50
2023-04-13T16:12:38.859Z,0.50
2023-04-13T16:15:09.617Z,0.60
2023-04-13T16:17:38.157Z,0.60
2023-04-13T16:20:17.744Z,0.57
2023-04-13T16:22:48.443Z,0.73
2023-04-13T16:25:16.612Z,0.70
2023-04-13T16:27:45.196Z,1.10
2023-04-13T16:30:16.314Z,0.80
2023-04-13T16:32:44.838Z,0.80
2023-04-13T16:35:12.748Z,0.70
2023-04-13T16:37:41.060Z,0.63
2023-04-13T16:40:10.589Z,0.70
2023-04-13T16:42:38.814Z,0.70
2023-04-13T16:45:07.696Z,0.80
2023-04-13T16:47:37.696Z,0.80
2023-04-13T16:50:06.258Z,0.90
2023-04-13T16:52:35.748Z,0.73
2023-04-13T16:55:05.457Z,0.90
2023-04-13T16:57:33.337Z,0.80
2023-04-13T17:00:06.181Z,0.73
2023-04-13T17:02:34.117Z,0.80
2023-04-13T17:05:03.440Z,0.90
2023-04-13T17:07:31.233Z,0.80
2023-04-13T17:09:59.024Z,0.90
2023-04-13T17:12:27.564Z,0.80
2023-04-13T17:14:56.140Z,0.80
2023-04-13T17:17:26.036Z,0.80
2023-04-13T17:19:54.484Z,0.70
2023-04-13T17:22:23.697Z,0.83
2023-04-13T17:24:51.630Z,0.83
2023-04-13T17:27:19.430Z,0.80
2023-04-13T17:29:48.012Z,0.60
2023-04-13T17:32:15.744Z,0.70
2023-04-13T17:34:44.660Z,0.90
2023-04-13T17:37:12.806Z,0.90
2023-04-13T17:39:47.650Z,1.00
2023-04-13T17:42:15.770Z,0.80
2023-04-13T17:44:43.873Z,0.70
2023-04-13T17:47:11.629Z,0.73
2023-04-13T17:49:39.568Z,1.07
2023-04-13T17:52:07.508Z,0.87
2023-04-13T17:54:36.229Z,0.87
2023-04-13T17:57:07.716Z,1.13
2023-04-13T17:59:35.464Z,0.97
2023-04-13T18:02:03.404Z,1.00
2023-04-13T18:04:32.264Z,0.80
2023-04-13T18:07:01.902Z,0.57
2023-04-13T18:09:29.648Z,0.60
2023-04-13T18:11:57.399Z,1.00
2023-04-13T18:14:26.856Z,0.70
2023-04-13T18:16:54.744Z,0.80
2023-04-13T18:19:22.522Z,0.80
2023-04-13T18:21:50.263Z,1.10
2023-04-13T18:24:18.047Z,0.80
2023-04-13T18:26:46.011Z,0.90
2023-04-13T18:29:14.097Z,1.10
2023-04-13T18:31:43.264Z,1.10
2023-04-13T18:34:13.579Z,1.20
2023-04-13T18:36:42.128Z,1.03
2023-04-13T18:39:11.277Z,1.00
2023-04-13T18:41:41.709Z,1.20
2023-04-13T18:44:10.224Z,1.10
2023-04-13T18:46:38.089Z,1.13
2023-04-13T18:49:07.221Z,1.20
2023-04-13T18:51:35.102Z,1.20
2023-04-13T18:54:02.899Z,1.40
2023-04-13T18:56:30.699Z,1.37
2023-04-13T18:58:58.652Z,1.20
2023-04-13T19:01:26.497Z,1.10
2023-04-13T19:03:54.557Z,1.27
2023-04-13T19:06:24.108Z,1.00
2023-04-13T19:08:52.260Z,0.80
2023-04-13T19:11:20.150Z,0.70
2023-04-13T19:13:48.195Z,0.97
2023-04-13T19:16:16.091Z,0.70
2023-04-13T19:18:43.915Z,0.77
2023-04-13T19:21:11.582Z,0.80
2023-04-13T19:23:40.883Z,0.83
2023-04-13T19:26:08.659Z,0.80
2023-04-13T19:28:36.492Z,1.00
2023-04-13T19:31:04.331Z,0.90
2023-04-13T19:33:33.502Z,0.90
2023-04-13T19:36:01.861Z,0.70
2023-04-13T19:38:29.638Z,0.80
2023-04-13T19:40:58.796Z,0.80
2023-04-13T19:43:28.123Z,0.60
2023-04-13T19:45:56.645Z,0.63
2023-04-13T19:48:24.494Z,0.67
2023-04-13T19:50:52.305Z,0.60
2023-04-13T19:53:20.356Z,0.53
2023-04-13T19:55:48.166Z,0.60
2023-04-13T19:58:17.549Z,0.60
2023-04-13T20:00:47.208Z,0.70
2023-04-13T20:03:15.362Z,0.97
2023-04-13T20:05:43.243Z,0.73
2023-04-13T20:08:11.407Z,0.70
2023-04-13T20:10:39.249Z,0.70
2023-04-13T20:13:07.314Z,0.50
2023-04-13T20:15:38.448Z,0.70
2023-04-13T20:18:07.533Z,0.60
2023-04-13T20:20:37.694Z,0.70
2023-04-13T20:23:07.920Z,0.70
2023-04-13T20:25:36.207Z,0.83
2023-04-13T20:28:04.020Z,0.70
2023-04-13T20:30:31.913Z,0.63
2023-04-13T20:33:01.121Z,0.60
2023-04-13T20:35:29.172Z,0.67
2023-04-13T20:37:59.947Z,0.70
2023-04-13T20:40:28.107Z,0.60
2023-04-13T20:42:58.493Z,0.77
2023-04-13T20:45:27.258Z,0.80
2023-04-13T20:47:56.148Z,0.70
2023-04-13T20:50:27.487Z,0.70
2023-04-13T20:52:59.759Z,0.60
2023-04-13T20:55:27.532Z,0.50
2023-04-13T20:57:55.884Z,0.70
2023-04-13T21:00:24.997Z,0.50
2023-04-13T21:02:55.057Z,0.50
2023-04-13T21:05:23.071Z,0.47
2023-04-13T21:07:54.714Z,0.50
2023-04-13T21:10:23.882Z,0.40
2023-04-13T21:12:51.906Z,0.40
2023-04-13T21:15:19.773Z,0.40
2023-04-13T21:17:49.144Z,0.60
2023-04-13T21:20:16.993Z,0.40
2023-04-13T21:22:44.821Z,0.50
2023-04-13T21:25:14.019Z,0.40
2023-04-13T21:27:41.785Z,0.37
2023-04-13T21:30:10.482Z,0.40
2023-04-13T21:32:39.445Z,0.37
2023-04-13T21:35:08.451Z,0.50
2023-04-13T21:37:36.221Z,0.50
2023-04-13T21:40:04.398Z,0.60
2023-04-13T21:42:33.484Z,0.50
2023-04-13T21:45:01.314Z,0.47
2023-04-13T21:47:31.823Z,0.47
2023-04-13T21:49:59.660Z,0.40
2023-04-13T21:52:27.570Z,0.40
2023-04-13T21:54:55.423Z,0.30
2023-04-13T21:57:23.219Z,0.53
2023-04-13T21:59:54.150Z,0.60
2023-04-13T22:02:22.485Z,0.20
2023-04-13T22:04:51.320Z,0.50
2023-04-13T22:07:28.456Z,0.40
2023-04-13T22:10:03.120Z,0.40
2023-04-13T22:12:33.520Z,0.30
2023-04-13T22:15:03.005Z,0.40
2023-04-13T22:17:30.928Z,0.40
2023-04-13T22:19:58.744Z,0.50
2023-04-13T22:22:27.011Z,0.40
2023-04-13T22:24:55.000Z,0.40
2023-04-13T22:27:22.764Z,0.50
2023-04-13T22:29:50.537Z,0.40
2023-04-13T22:32:19.618Z,0.43
2023-04-13T22:34:47.316Z,0.40
2023-04-13T22:37:17.407Z,0.40
2023-04-13T22:39:45.466Z,0.47
2023-04-13T22:42:13.394Z,0.50
2023-04-13T22:44:41.167Z,0.30
2023-04-13T22:47:09.032Z,0.20
2023-04-13T22:49:38.170Z,0.40
2023-04-13T22:52:05.973Z,0.40
2023-04-13T22:54:33.715Z,0.47
2023-04-13T22:57:04.680Z,0.40
2023-04-13T22:59:34.159Z,0.40
2023-04-13T23:02:05.056Z,0.40
2023-04-13T23:04:33.016Z,0.40
2023-04-13T23:07:02.261Z,0.50
2023-04-13T23:09:30.112Z,0.40
2023-04-13T23:11:58.846Z,0.40
2023-04-13T23:14:26.930Z,0.40
2023-04-13T23:16:56.731Z,0.40
2023-04-13T23:19:26.273Z,0.40
2023-04-13T23:21:54.206Z,0.40
2023-04-13T23:24:23.291Z,0.40
2023-04-13T23:26:50.981Z,0.50
2023-04-13T23:29:19.918Z,0.40
2023-04-13T23:31:47.781Z,0.53
2023-04-13T23:34:15.723Z,0.50
2023-04-13T23:36:43.612Z,0.30
2023-04-13T23:39:11.449Z,0.40
2023-04-13T23:41:40.822Z,0.40
2023-04-13T23:44:08.490Z,0.50
2023-04-13T23:46:36.274Z,0.40
2023-04-13T23:49:03.941Z,0.40
2023-04-13T23:51:31.799Z,0.33
2023-04-13T23:53:59.542Z,0.47
2023-04-13T23:56:27.754Z,0.40
2023-04-13T23:58:57.173Z,0.43
